Time;durP1;ratioP1;P1;durP2;ratioP2;P2;SDS_P1;SDS_P2;PMS_P1;PMS_P2;Temp;Humidity;BMP_temperature;BMP_pressure;BME280_temperature;BME280_humidity;BME280_pressure;Samples;Min_cycle;Max_cycle;Signal;HPM_P1;HPM_P2
2021/12/25 07:40:45;;;;;;;40.30;37.80;;;9.30;99.90;;;;;;5128554;27;20617;-75
2021/12/25 07:43:12;;;;;;;40.23;37.63;;;9.90;99.90;;;;;;5123069;27;20549;-84
2021/12/25 07:45:38;;;;;;;42.97;40.03;;;9.90;99.90;;;;;;5140950;27;20496;-77
2021/12/25 07:48:05;;;;;;;41.13;38.57;;;9.90;99.90;;;;;;5130692;27;20462;-88
2021/12/25 07:50:35;;;;;;;39.90;37.37;;;10.00;99.90;;;;;;5117897;28;20453;-85
2021/12/25 07:53:02;;;;;;;38.23;35.83;;;10.10;99.90;;;;;;5145698;27;20454;-88
2021/12/25 07:55:32;;;;;;;39.00;36.50;;;10.10;99.90;;;;;;5150404;27;20444;-87
2021/12/25 07:58:00;;;;;;;40.10;37.63;;;10.20;99.90;;;;;;5149947;27;20447;-82
2021/12/25 08:00:27;;;;;;;39.70;37.30;;;10.20;99.90;;;;;;5139215;27;20452;-76
2021/12/25 08:02:55;;;;;;;40.10;37.80;;;10.20;99.90;;;;;;5128251;28;21024;-74
2021/12/25 08:05:22;;;;;;;38.00;35.80;;;10.30;99.90;;;;;;5128496;28;20505;-74
2021/12/25 08:07:49;;;;;;;39.40;37.10;;;10.30;99.90;;;;;;5126603;28;20452;-75
2021/12/25 08:10:18;;;;;;;38.90;36.70;;;10.30;99.90;;;;;;5128772;28;20480;-75
2021/12/25 08:12:46;;;;;;;39.03;36.83;;;10.20;99.90;;;;;;5128295;28;20453;-74
2021/12/25 08:15:16;;;;;;;38.33;36.23;;;10.30;99.90;;;;;;5128414;28;20843;-74
2021/12/25 08:17:44;;;;;;;39.77;37.67;;;10.20;99.90;;;;;;5139565;27;20443;-81
2021/12/25 08:20:12;;;;;;;37.23;35.03;;;10.20;99.90;;;;;;5149092;27;20556;-75
2021/12/25 08:22:39;;;;;;;36.30;34.37;;;10.20;99.90;;;;;;5148616;27;20450;-74
2021/12/25 08:25:07;;;;;;;37.17;35.07;;;10.20;99.90;;;;;;5148896;27;20443;-73
2021/12/25 08:31:04;;;;;;;38.37;36.20;;;10.40;99.90;;;;;;5105242;27;20604;-80
2021/12/25 08:33:31;;;;;;;36.67;34.67;;;10.30;99.90;;;;;;5108983;28;20442;-75
2021/12/25 08:35:58;;;;;;;36.90;34.80;;;10.20;99.90;;;;;;5108524;28;20981;-75
2021/12/25 08:38:25;;;;;;;38.13;35.80;;;10.20;99.90;;;;;;5108523;28;20448;-82
2021/12/25 08:40:54;;;;;;;36.70;34.70;;;10.20;99.90;;;;;;5108917;28;20950;-83
2021/12/25 08:43:24;;;;;;;37.90;35.70;;;10.30;99.90;;;;;;5109258;28;20954;-83
2021/12/25 08:46:01;;;;;;;37.73;35.53;;;10.40;99.90;;;;;;5108771;28;20460;-82
2021/12/25 08:48:30;;;;;;;40.43;37.53;;;10.40;99.90;;;;;;5108607;28;20870;-82
2021/12/25 08:50:58;;;;;;;36.20;34.20;;;10.50;99.90;;;;;;5108113;28;20484;-80
2021/12/25 08:53:27;;;;;;;35.70;33.70;;;10.50;99.90;;;;;;5108185;28;20656;-80
2021/12/25 08:55:56;;;;;;;36.40;34.40;;;10.60;99.90;;;;;;5108051;28;20445;-80
2021/12/25 08:58:23;;;;;;;36.30;34.33;;;10.60;99.90;;;;;;5108034;28;20449;-79
2021/12/25 09:00:55;;;;;;;36.30;34.30;;;10.70;99.90;;;;;;5108178;28;20794;-79
2021/12/25 09:03:21;;;;;;;37.13;35.07;;;10.60;99.90;;;;;;5108106;28;20747;-82
2021/12/25 09:05:49;;;;;;;38.57;36.37;;;10.60;99.90;;;;;;5108110;28;20480;-83
2021/12/25 09:08:16;;;;;;;37.17;35.17;;;10.60;99.90;;;;;;5108183;28;20496;-82
2021/12/25 09:10:43;;;;;;;36.93;34.83;;;10.70;99.90;;;;;;5107797;28;20485;-83
2021/12/25 09:13:10;;;;;;;37.67;35.57;;;10.70;99.90;;;;;;5107890;28;20456;-84
2021/12/25 09:15:36;;;;;;;37.30;35.20;;;10.60;99.90;;;;;;5107865;28;20459;-74
2021/12/25 09:18:03;;;;;;;36.43;34.43;;;10.60;99.90;;;;;;5107930;28;20503;-74
2021/12/25 09:20:30;;;;;;;35.97;34.03;;;10.60;99.90;;;;;;5107440;28;20449;-75
2021/12/25 09:22:58;;;;;;;37.10;35.10;;;10.60;99.90;;;;;;5107880;28;20448;-77
2021/12/25 09:25:25;;;;;;;37.10;34.80;;;10.70;99.90;;;;;;5107663;28;20453;-85
2021/12/25 09:27:52;;;;;;;37.50;35.20;;;10.60;99.90;;;;;;5108663;28;20449;-81
2021/12/25 09:30:19;;;;;;;38.10;35.80;;;10.70;99.90;;;;;;5107648;28;21095;-82
2021/12/25 09:32:46;;;;;;;37.57;35.57;;;10.80;99.90;;;;;;5105682;28;20506;-79
2021/12/25 09:35:13;;;;;;;38.47;36.27;;;10.80;99.90;;;;;;5107666;28;20470;-78
2021/12/25 09:37:40;;;;;;;39.30;36.87;;;10.70;99.90;;;;;;5107652;28;20441;-78
2021/12/25 09:40:10;;;;;;;40.87;38.40;;;10.70;99.90;;;;;;5107406;28;20942;-78
2021/12/25 09:42:39;;;;;;;37.87;35.87;;;10.70;99.90;;;;;;5093599;28;20442;-78
2021/12/25 09:45:07;;;;;;;39.90;37.47;;;10.70;99.90;;;;;;5093793;28;20493;-80
2021/12/25 09:47:34;;;;;;;39.87;37.80;;;10.70;99.90;;;;;;5094027;28;20869;-82
2021/12/25 09:50:01;;;;;;;39.97;37.77;;;10.90;99.90;;;;;;5094282;28;20490;-83
2021/12/25 09:52:27;;;;;;;40.60;38.27;;;10.90;99.90;;;;;;5093952;28;20500;-83
2021/12/25 09:54:55;;;;;;;40.67;38.47;;;11.10;99.90;;;;;;5093987;28;20454;-82
2021/12/25 09:57:24;;;;;;;39.93;37.60;;;11.20;99.90;;;;;;5093907;28;20465;-82
2021/12/25 09:59:52;;;;;;;39.83;37.73;;;11.10;99.90;;;;;;5093765;28;20447;-81
2021/12/25 10:02:19;;;;;;;38.50;36.30;;;11.00;99.90;;;;;;5093829;28;20447;-82
2021/12/25 10:04:48;;;;;;;39.57;37.17;;;11.00;99.90;;;;;;5093879;28;20439;-83
2021/12/25 10:07:27;;;;;;;40.57;38.27;;;11.10;99.90;;;;;;5093467;28;20452;-81
2021/12/25 10:10:03;;;;;;;41.57;38.87;;;11.10;99.90;;;;;;5093616;28;20517;-82
2021/12/25 10:12:39;;;;;;;38.93;36.63;;;11.10;99.90;;;;;;5093544;28;20442;-83
2021/12/25 10:15:08;;;;;;;39.87;37.53;;;11.20;99.90;;;;;;5093605;28;20804;-84
2021/12/25 10:17:35;;;;;;;35.20;33.40;;;11.30;99.90;;;;;;5093735;28;20447;-84
2021/12/25 10:20:11;;;;;;;37.27;35.27;;;11.40;99.90;;;;;;5093636;28;20453;-83
2021/12/25 10:22:58;;;;;;;37.80;35.80;;;11.40;99.90;;;;;;5093429;28;20450;-81
2021/12/25 10:25:27;;;;;;;35.80;33.90;;;11.50;99.90;;;;;;5093109;28;20449;-80
2021/12/25 10:27:57;;;;;;;37.47;35.47;;;11.40;99.90;;;;;;5093032;28;20454;-80
2021/12/25 10:30:25;;;;;;;38.47;36.17;;;11.40;99.90;;;;;;5092895;28;20493;-81
2021/12/25 10:32:52;;;;;;;37.77;35.67;;;11.40;99.90;;;;;;5092863;28;20457;-82
2021/12/25 10:35:21;;;;;;;38.67;36.47;;;11.40;99.90;;;;;;5093060;28;20466;-82
2021/12/25 10:37:50;;;;;;;38.90;36.70;;;11.50;99.90;;;;;;5092979;28;20507;-81
2021/12/25 10:40:26;;;;;;;39.07;36.80;;;11.50;99.90;;;;;;5093060;28;20446;-81
2021/12/25 10:42:55;;;;;;;38.70;36.30;;;11.60;99.90;;;;;;5092869;28;20450;-82
2021/12/25 10:45:24;;;;;;;37.00;34.87;;;11.80;99.90;;;;;;5092668;28;20442;-82
2021/12/25 10:48:01;;;;;;;38.57;36.13;;;11.90;99.90;;;;;;5093063;28;20794;-84
2021/12/25 10:50:36;;;;;;;39.93;37.27;;;12.00;99.90;;;;;;5092895;28;20879;-83
2021/12/25 10:53:05;;;;;;;38.57;36.27;;;12.10;99.90;;;;;;5071511;28;20473;-84
2021/12/25 10:55:32;;;;;;;36.63;34.73;;;12.30;99.90;;;;;;5072577;28;20542;-85
2021/12/25 10:58:01;;;;;;;35.67;33.77;;;12.20;99.90;;;;;;5072435;28;20505;-84
2021/12/25 11:00:30;;;;;;;36.40;34.43;;;12.30;99.90;;;;;;5072643;28;20929;-85
2021/12/25 11:02:59;;;;;;;35.03;33.23;;;12.30;99.90;;;;;;5072519;28;20455;-85
2021/12/25 11:05:29;;;;;;;36.67;34.73;;;12.50;99.90;;;;;;5072353;28;20760;-85
2021/12/25 11:08:04;;;;;;;36.23;34.30;;;12.70;99.90;;;;;;5072685;28;20457;-84
2021/12/25 11:10:31;;;;;;;34.93;33.07;;;12.90;99.90;;;;;;5072457;28;20493;-86
2021/12/25 11:13:00;;;;;;;37.73;35.33;;;13.10;99.90;;;;;;5072792;28;20450;-87
2021/12/25 11:15:32;;;;;;;36.40;34.50;;;13.40;99.90;;;;;;5072559;28;20481;-87
2021/12/25 11:18:06;;;;;;;35.97;34.00;;;13.70;99.90;;;;;;5086161;28;20455;-87
2021/12/25 11:20:35;;;;;;;36.10;34.00;;;13.70;99.90;;;;;;5080254;28;20545;-87
2021/12/25 11:23:03;;;;;;;30.70;28.97;;;13.80;99.90;;;;;;5072802;28;20450;-87
2021/12/25 11:25:32;;;;;;;30.97;29.27;;;13.90;99.90;;;;;;5072253;28;20458;-87
2021/12/25 11:28:01;;;;;;;28.73;27.33;;;13.90;99.90;;;;;;5072142;28;20447;-87
2021/12/25 11:30:31;;;;;;;28.10;26.50;;;13.90;99.90;;;;;;5071951;28;20486;-87
2021/12/25 11:32:59;;;;;;;27.87;26.40;;;13.90;99.90;;;;;;5072209;28;20459;-86
2021/12/25 11:35:26;;;;;;;25.97;24.67;;;14.10;99.90;;;;;;5071912;28;20474;-86
2021/12/25 11:37:55;;;;;;;26.40;25.20;;;14.00;99.90;;;;;;5072136;28;20458;-86
2021/12/25 11:40:26;;;;;;;25.10;23.80;;;14.00;99.90;;;;;;5072028;28;20443;-85
2021/12/25 11:42:56;;;;;;;26.20;24.70;;;14.00;99.90;;;;;;5071763;28;20443;-85
2021/12/25 11:45:28;;;;;;;26.57;25.17;;;13.90;99.90;;;;;;5071552;28;20451;-84
2021/12/25 11:47:58;;;;;;;26.50;25.10;;;13.50;99.90;;;;;;5071429;28;20528;-83
2021/12/25 11:50:39;;;;;;;24.83;23.63;;;13.40;99.90;;;;;;5071234;28;20483;-82
2021/12/25 11:53:14;;;;;;;21.40;20.50;;;13.20;99.90;;;;;;5071521;28;20500;-81
2021/12/25 11:58:39;;;;;;;21.63;20.53;;;13.10;99.90;;;;;;5071233;28;20443;-80
2021/12/25 12:01:22;;;;;;;20.43;19.43;;;13.10;99.90;;;;;;5071351;28;20458;-80
2021/12/25 12:03:54;;;;;;;20.43;19.43;;;13.20;99.90;;;;;;5071081;28;20454;-80
2021/12/25 12:06:36;;;;;;;19.90;19.00;;;13.40;99.90;;;;;;5071102;28;20804;-80
2021/12/25 12:09:11;;;;;;;19.73;18.83;;;13.60;99.90;;;;;;5071103;28;20450;-80
2021/12/25 12:11:40;;;;;;;18.03;17.10;;;13.50;99.90;;;;;;5071058;28;20581;-80
2021/12/25 12:14:18;;;;;;;16.90;16.10;;;13.30;99.90;;;;;;5071142;28;20459;-80
2021/12/25 12:16:48;;;;;;;14.57;14.07;;;13.20;99.90;;;;;;5070591;28;20936;-80
2021/12/25 12:19:47;;;;;;;13.70;13.20;;;13.20;99.90;;;;;;5071087;28;20505;-81
2021/12/25 12:22:44;;;;;;;15.53;14.93;;;13.30;99.90;;;;;;5071274;28;20447;-81
2021/12/25 12:25:23;;;;;;;15.20;14.60;;;13.30;99.90;;;;;;5071168;28;20447;-82
2021/12/25 12:27:52;;;;;;;15.30;14.20;;;13.10;99.90;;;;;;5071173;28;20447;-82
2021/12/25 12:30:47;;;;;;;14.13;13.43;;;13.10;99.90;;;;;;5070982;28;20501;-82
2021/12/25 12:33:35;;;;;;;13.70;13.20;;;13.10;99.90;;;;;;5068971;28;20952;-82
2021/12/25 12:36:03;;;;;;;13.60;13.10;;;13.10;99.90;;;;;;5070841;28;20471;-82
2021/12/25 12:38:38;;;;;;;14.13;13.63;;;13.00;99.90;;;;;;5070919;28;20462;-82
2021/12/25 12:41:32;;;;;;;13.27;12.73;;;13.00;99.90;;;;;;5071098;28;20446;-81
2021/12/25 12:44:06;;;;;;;13.40;12.90;;;13.00;99.90;;;;;;5056859;28;20532;-81
2021/12/25 12:47:03;;;;;;;14.47;13.93;;;12.90;99.90;;;;;;5070769;28;20451;-80
2021/12/25 12:49:51;;;;;;;14.37;13.80;;;12.70;99.90;;;;;;5070664;28;20443;-80
2021/12/25 12:52:22;;;;;;;14.10;13.50;;;12.80;99.90;;;;;;5084841;28;20438;-80
2021/12/25 12:54:51;;;;;;;14.43;13.83;;;12.80;99.90;;;;;;5090868;28;20964;-80
2021/12/25 12:57:21;;;;;;;13.80;13.27;;;12.80;99.90;;;;;;5090883;28;20446;-79
2021/12/25 12:59:49;;;;;;;14.50;13.70;;;12.70;99.90;;;;;;5090959;28;20450;-79
2021/12/25 13:02:17;;;;;;;14.30;13.67;;;12.70;99.90;;;;;;5090789;28;20442;-79
2021/12/25 13:04:48;;;;;;;14.30;13.70;;;12.50;99.90;;;;;;5090637;28;20453;-79
2021/12/25 13:07:21;;;;;;;14.43;13.73;;;12.50;99.90;;;;;;5090737;28;20955;-78
2021/12/25 13:09:57;;;;;;;13.43;12.93;;;12.40;99.90;;;;;;5090723;28;20448;-79
2021/12/25 13:12:35;;;;;;;13.17;12.57;;;12.30;99.90;;;;;;5090664;28;20442;-79
2021/12/25 13:15:09;;;;;;;14.03;13.43;;;12.20;99.90;;;;;;5090763;28;20454;-78
2021/12/25 13:17:36;;;;;;;14.17;13.47;;;12.30;99.90;;;;;;5094085;28;20458;-79
2021/12/25 13:20:05;;;;;;;12.97;12.37;;;12.20;99.90;;;;;;5094661;28;20453;-80
2021/12/25 13:22:32;;;;;;;12.30;11.80;;;12.10;99.90;;;;;;5094631;28;20545;-79
2021/12/25 13:25:06;;;;;;;13.13;12.63;;;12.10;99.90;;;;;;5094274;28;20453;-79
2021/12/25 13:27:33;;;;;;;14.20;13.60;;;12.00;99.90;;;;;;5094414;28;20450;-80
2021/12/25 13:30:10;;;;;;;13.87;13.17;;;12.00;99.90;;;;;;5093832;28;20493;-80
2021/12/25 13:32:36;;;;;;;14.50;13.80;;;12.10;99.90;;;;;;5113662;27;20464;-81
2021/12/25 13:35:05;;;;;;;15.50;14.90;;;12.00;99.90;;;;;;5135289;27;20890;-80
2021/12/25 13:37:31;;;;;;;17.20;16.43;;;11.80;99.90;;;;;;5136518;27;20448;-76
2021/12/25 13:39:58;;;;;;;22.70;21.70;;;11.60;99.90;;;;;;5135232;27;20440;-74
2021/12/25 13:42:25;;;;;;;23.40;22.17;;;11.30;99.90;;;;;;5134935;27;20449;-77
2021/12/25 13:44:53;;;;;;;24.80;23.63;;;11.10;99.90;;;;;;5135023;27;20449;-77
2021/12/25 13:47:23;;;;;;;26.10;24.90;;;11.00;99.90;;;;;;5134886;27;20495;-80
2021/12/25 13:49:54;;;;;;;26.13;24.90;;;10.90;99.90;;;;;;5135174;27;20444;-80
2021/12/25 13:52:28;;;;;;;25.13;23.93;;;10.80;99.90;;;;;;5134702;27;20491;-79
2021/12/25 13:55:07;;;;;;;26.43;25.07;;;10.70;99.90;;;;;;5134584;27;20448;-79
2021/12/25 13:57:36;;;;;;;27.47;26.00;;;10.70;99.90;;;;;;5135016;27;20453;-79
2021/12/25 14:00:09;;;;;;;28.80;27.40;;;10.80;99.90;;;;;;5134628;27;20452;-78
2021/12/25 14:02:39;;;;;;;28.60;27.20;;;10.70;99.90;;;;;;5134563;27;20933;-78
2021/12/25 14:05:08;;;;;;;29.53;28.13;;;10.70;99.90;;;;;;5134420;27;21009;-79
2021/12/25 14:07:38;;;;;;;31.20;29.50;;;10.70;99.90;;;;;;5134261;27;20532;-78
2021/12/25 14:10:09;;;;;;;29.83;28.43;;;10.70;99.90;;;;;;5134090;27;20945;-78
2021/12/25 14:12:37;;;;;;;30.17;28.60;;;10.70;99.90;;;;;;5134270;27;21020;-78
2021/12/25 14:15:07;;;;;;;29.77;28.13;;;10.70;99.90;;;;;;5130653;27;20445;-79
2021/12/25 14:17:35;;;;;;;31.03;29.50;;;10.70;99.90;;;;;;5132823;27;20448;-80
2021/12/25 14:20:15;;;;;;;30.70;28.90;;;10.60;99.90;;;;;;5132848;27;20440;-80
2021/12/25 14:22:44;;;;;;;32.17;30.37;;;10.70;99.90;;;;;;5132880;27;20424;-77
2021/12/25 14:25:20;;;;;;;30.07;28.57;;;10.80;99.90;;;;;;5130276;27;20444;-78
2021/12/25 14:28:03;;;;;;;30.87;29.10;;;10.90;99.90;;;;;;5129551;27;20929;-77
2021/12/25 14:30:32;;;;;;;31.50;29.70;;;11.00;99.90;;;;;;5130254;27;20459;-78
2021/12/25 14:32:59;;;;;;;31.63;29.93;;;11.00;99.90;;;;;;5133793;27;20452;-77
2021/12/25 14:35:26;;;;;;;31.57;29.97;;;10.90;99.90;;;;;;5133704;27;21044;-78
2021/12/25 14:37:59;;;;;;;33.83;32.13;;;10.90;99.90;;;;;;5133877;27;20446;-79
2021/12/25 14:40:32;;;;;;;33.07;31.47;;;10.90;99.90;;;;;;5134163;27;20457;-78
2021/12/25 14:43:03;;;;;;;33.40;31.50;;;10.90;99.90;;;;;;5133718;27;20788;-77
2021/12/25 14:45:40;;;;;;;32.27;30.47;;;10.90;99.90;;;;;;5133997;27;20506;-77
2021/12/25 14:48:07;;;;;;;34.20;32.30;;;10.90;99.90;;;;;;5133918;27;20452;-78
2021/12/25 14:50:35;;;;;;;33.87;31.97;;;10.90;99.90;;;;;;5133598;27;20855;-78
2021/12/25 14:53:07;;;;;;;36.13;34.23;;;11.00;99.90;;;;;;5133812;27;20445;-78
2021/12/25 14:55:37;;;;;;;38.60;36.20;;;11.00;99.90;;;;;;5133848;27;20444;-78
2021/12/25 14:58:10;;;;;;;36.93;34.73;;;10.90;99.90;;;;;;5133564;27;20449;-78
2021/12/25 15:00:37;;;;;;;36.40;34.40;;;10.90;99.90;;;;;;5133286;27;20444;-77
2021/12/25 15:03:15;;;;;;;36.83;34.73;;;10.70;99.90;;;;;;5133524;27;20812;-77
2021/12/25 15:05:45;;;;;;;39.27;36.97;;;10.70;99.90;;;;;;5133295;27;20448;-77
2021/12/25 15:08:26;;;;;;;41.10;38.47;;;10.40;99.90;;;;;;5132436;27;20445;-77
2021/12/25 15:10:54;;;;;;;42.03;39.33;;;10.30;99.90;;;;;;5131205;27;20527;-78
2021/12/25 15:13:23;;;;;;;39.93;37.37;;;10.20;99.90;;;;;;5128703;27;20453;-79
2021/12/25 15:15:52;;;;;;;40.90;38.40;;;10.10;99.90;;;;;;5132898;27;20446;-79
2021/12/25 15:18:25;;;;;;;39.60;37.20;;;10.10;99.90;;;;;;5133011;27;20455;-79
2021/12/25 15:21:18;;;;;;;41.13;38.63;;;10.00;99.90;;;;;;5132985;27;20451;-79
2021/12/25 15:23:48;;;;;;;38.47;36.17;;;9.90;99.90;;;;;;5133184;27;20499;-79
2021/12/25 15:26:18;;;;;;;39.60;37.20;;;9.90;99.90;;;;;;5132827;27;20452;-79
2021/12/25 15:28:54;;;;;;;38.73;36.23;;;9.80;99.90;;;;;;5132622;27;20479;-78
2021/12/25 15:31:25;;;;;;;38.80;36.37;;;9.70;99.90;;;;;;5132814;27;20570;-79
2021/12/25 15:33:53;;;;;;;37.50;35.03;;;9.60;99.90;;;;;;5133157;27;20443;-80
2021/12/25 15:36:22;;;;;;;40.20;37.67;;;9.60;99.90;;;;;;5132585;27;20476;-78
2021/12/25 15:38:51;;;;;;;41.00;38.47;;;9.50;99.90;;;;;;5132285;27;20448;-79
2021/12/25 15:41:18;;;;;;;36.73;34.30;;;9.50;99.90;;;;;;5132614;27;20449;-78
2021/12/25 15:43:46;;;;;;;37.20;35.00;;;9.50;99.90;;;;;;5132662;27;20449;-78
2021/12/25 15:46:13;;;;;;;38.27;35.90;;;9.40;99.90;;;;;;5132516;27;20452;-79
2021/12/25 15:48:40;;;;;;;39.50;36.87;;;9.40;99.90;;;;;;5132322;27;20448;-79
2021/12/25 15:51:09;;;;;;;35.87;33.77;;;9.40;99.90;;;;;;5132489;27;20453;-82
2021/12/25 15:53:36;;;;;;;36.63;34.57;;;9.30;99.90;;;;;;5132832;27;20815;-84
2021/12/25 15:56:06;;;;;;;37.17;35.00;;;9.30;99.90;;;;;;5133156;27;20444;-83
2021/12/25 15:58:32;;;;;;;36.27;34.27;;;9.10;99.90;;;;;;5132705;27;20479;-83
2021/12/25 16:00:59;;;;;;;36.43;34.23;;;8.90;99.90;;;;;;5132804;27;20471;-83
2021/12/25 16:03:26;;;;;;;34.30;32.40;;;8.80;99.90;;;;;;5132727;27;20450;-83
2021/12/25 16:05:53;;;;;;;35.47;33.37;;;8.70;99.90;;;;;;5132793;27;20441;-83
2021/12/25 16:08:20;;;;;;;36.90;34.43;;;8.70;99.90;;;;;;5132687;27;20455;-82
2021/12/25 16:10:49;;;;;;;34.53;32.43;;;8.60;99.90;;;;;;5132918;27;20449;-83
2021/12/25 16:13:19;;;;;;;35.90;33.63;;;8.50;99.90;;;;;;5132870;27;20484;-84
2021/12/25 16:15:48;;;;;;;34.70;32.60;;;8.40;99.90;;;;;;5132507;27;20452;-83
2021/12/25 16:18:14;;;;;;;36.80;34.20;;;8.40;99.90;;;;;;5132687;27;20949;-83
2021/12/25 16:20:41;;;;;;;35.87;33.47;;;8.30;99.90;;;;;;5132639;27;20448;-83
2021/12/25 16:23:08;;;;;;;36.53;34.13;;;8.20;99.90;;;;;;5132628;27;20437;-82
2021/12/25 16:25:35;;;;;;;37.87;35.30;;;8.20;99.90;;;;;;5132380;27;20945;-82
2021/12/25 16:28:01;;;;;;;36.27;33.90;;;8.10;99.90;;;;;;5132534;27;20461;-83
2021/12/25 16:30:32;;;;;;;37.23;34.77;;;8.10;99.90;;;;;;5132470;28;20530;-82
2021/12/25 16:33:02;;;;;;;36.43;34.13;;;8.10;99.90;;;;;;5132814;28;20487;-83
2021/12/25 16:35:30;;;;;;;34.97;32.77;;;8.00;99.90;;;;;;5132214;28;20839;-81
2021/12/25 16:37:57;;;;;;;35.70;33.33;;;8.10;99.90;;;;;;5131944;28;20449;-82
2021/12/25 16:40:23;;;;;;;36.13;33.57;;;8.00;99.90;;;;;;5132551;28;20449;-82
2021/12/25 16:42:50;;;;;;;36.43;34.03;;;7.80;99.90;;;;;;5132027;28;20451;-81
2021/12/25 16:45:17;;;;;;;34.53;32.53;;;7.70;99.90;;;;;;5130487;27;20867;-81
2021/12/25 16:47:45;;;;;;;34.73;32.33;;;7.80;99.90;;;;;;5130789;28;20796;-82
2021/12/25 16:50:15;;;;;;;34.43;32.20;;;7.70;99.90;;;;;;5130446;27;20917;-82
2021/12/25 16:52:42;;;;;;;35.63;33.30;;;7.70;99.90;;;;;;5134439;27;20484;-83
2021/12/25 16:55:10;;;;;;;34.10;31.90;;;7.60;99.90;;;;;;5134638;27;20443;-82
2021/12/25 16:57:37;;;;;;;33.60;31.40;;;7.60;99.90;;;;;;5134258;27;20451;-81
2021/12/25 17:00:07;;;;;;;35.03;32.73;;;7.60;99.90;;;;;;5131522;27;20448;-81
2021/12/25 17:02:34;;;;;;;34.00;31.80;;;7.70;99.90;;;;;;5134823;27;20436;-82
2021/12/25 17:05:02;;;;;;;33.47;31.57;;;7.60;99.90;;;;;;5134478;27;20451;-83
2021/12/25 17:07:29;;;;;;;34.47;32.17;;;7.60;99.90;;;;;;5132323;27;20787;-82
2021/12/25 17:09:58;;;;;;;34.27;31.40;;;7.60;99.90;;;;;;5134303;27;20440;-83
2021/12/25 17:12:25;;;;;;;30.50;28.60;;;7.60;99.90;;;;;;5131621;27;20480;-84
2021/12/25 17:14:53;;;;;;;32.23;30.33;;;7.40;99.90;;;;;;5134827;27;20444;-83
2021/12/25 17:17:19;;;;;;;32.50;30.40;;;7.40;99.90;;;;;;5134160;27;20871;-83
2021/12/25 17:19:46;;;;;;;31.90;29.73;;;7.30;99.90;;;;;;5131218;27;20447;-83
2021/12/25 17:22:14;;;;;;;31.60;29.50;;;7.20;99.90;;;;;;5133836;27;20437;-83
2021/12/25 17:24:41;;;;;;;33.37;31.23;;;7.20;99.90;;;;;;5133959;27;20943;-82
2021/12/25 17:27:08;;;;;;;32.27;30.20;;;7.40;99.90;;;;;;5128936;27;20444;-83
2021/12/25 17:29:36;;;;;;;31.40;29.50;;;7.30;99.90;;;;;;5133893;27;20490;-82
2021/12/25 17:32:04;;;;;;;32.80;30.67;;;7.30;99.90;;;;;;5133698;27;20479;-82
2021/12/25 17:34:30;;;;;;;32.00;30.00;;;7.30;99.90;;;;;;5133663;27;20458;-81
2021/12/25 17:36:57;;;;;;;32.10;30.10;;;7.30;99.90;;;;;;5133462;27;20448;-83
2021/12/25 17:39:25;;;;;;;33.63;31.23;;;7.20;99.90;;;;;;5133432;27;20440;-82
2021/12/25 17:41:53;;;;;;;33.17;30.87;;;7.30;99.90;;;;;;5133412;27;20446;-82
2021/12/25 17:44:23;;;;;;;33.43;31.27;;;7.20;99.90;;;;;;5133490;27;20440;-81
2021/12/25 17:46:51;;;;;;;32.30;30.20;;;7.20;99.90;;;;;;5133853;27;20549;-80
2021/12/25 17:49:19;;;;;;;33.60;31.50;;;7.20;99.90;;;;;;5133363;27;20447;-80
2021/12/25 17:51:46;;;;;;;31.27;29.20;;;7.20;99.90;;;;;;5133123;27;20523;-83
2021/12/25 17:54:12;;;;;;;31.20;29.30;;;7.20;99.90;;;;;;5133896;27;20482;-80
2021/12/25 17:56:41;;;;;;;31.23;29.37;;;7.20;99.90;;;;;;5141693;27;20448;-81
2021/12/25 17:59:07;;;;;;;31.80;29.97;;;7.10;99.90;;;;;;5151443;27;20474;-81
2021/12/25 18:01:34;;;;;;;32.67;30.47;;;7.00;99.90;;;;;;5134859;27;20459;-80
2021/12/25 18:04:01;;;;;;;32.27;30.27;;;7.00;99.90;;;;;;5134735;27;20455;-80
2021/12/25 18:06:28;;;;;;;31.87;29.87;;;7.10;99.90;;;;;;5134168;27;20454;-81
2021/12/25 18:08:55;;;;;;;32.13;30.10;;;6.90;99.90;;;;;;5137339;27;20450;-81
2021/12/25 18:11:23;;;;;;;33.67;31.40;;;6.90;99.90;;;;;;5148825;27;20967;-81
2021/12/25 18:13:53;;;;;;;32.30;30.40;;;7.00;99.90;;;;;;5134711;27;20488;-81
2021/12/25 18:16:21;;;;;;;34.17;31.87;;;7.00;99.90;;;;;;5134126;27;20455;-82
2021/12/25 18:18:48;;;;;;;32.63;30.50;;;7.00;99.90;;;;;;5133763;27;20535;-82
2021/12/25 18:21:15;;;;;;;32.03;30.03;;;7.00;99.90;;;;;;5134040;27;20499;-81
2021/12/25 18:23:42;;;;;;;33.37;31.07;;;7.00;99.90;;;;;;5133690;27;20448;-81
2021/12/25 18:26:09;;;;;;;33.77;31.57;;;7.00;99.90;;;;;;5133848;27;20985;-83
2021/12/25 18:28:37;;;;;;;31.67;29.83;;;7.00;99.90;;;;;;5133708;27;20536;-82
2021/12/25 18:31:07;;;;;;;32.50;30.50;;;7.00;99.90;;;;;;5133982;27;20453;-84
2021/12/25 18:33:34;;;;;;;33.73;31.63;;;6.90;99.90;;;;;;5133789;27;20511;-83
2021/12/25 18:36:01;;;;;;;33.77;31.50;;;6.80;99.90;;;;;;5133928;27;20514;-85
2021/12/25 18:38:28;;;;;;;35.73;33.43;;;6.90;99.90;;;;;;5134144;27;20454;-87
2021/12/25 18:40:55;;;;;;;35.50;33.07;;;6.80;99.90;;;;;;5134665;27;20460;-89
2021/12/25 18:43:22;;;;;;;35.53;33.10;;;6.70;99.90;;;;;;5136906;27;20456;-89
2021/12/25 18:45:49;;;;;;;34.47;32.20;;;6.80;99.90;;;;;;5134812;27;20447;-88
2021/12/25 18:48:17;;;;;;;34.00;32.00;;;6.70;99.90;;;;;;5144621;27;20460;-89
2021/12/25 18:50:44;;;;;;;35.20;33.10;;;6.70;99.90;;;;;;5139641;27;20953;-88
2021/12/25 18:53:11;;;;;;;33.90;31.83;;;6.70;99.90;;;;;;5137511;27;20506;-89
2021/12/25 18:55:38;;;;;;;35.60;33.30;;;6.70;99.90;;;;;;5134994;27;20458;-83
2021/12/25 18:58:06;;;;;;;35.30;32.87;;;6.70;99.90;;;;;;5133483;27;20949;-83
2021/12/25 19:00:36;;;;;;;33.60;31.53;;;6.60;99.90;;;;;;5133317;27;20967;-82
2021/12/25 19:03:04;;;;;;;34.47;32.40;;;6.60;99.90;;;;;;5133541;27;20458;-83
2021/12/25 19:05:32;;;;;;;35.57;33.37;;;6.50;99.90;;;;;;5133249;27;20823;-82
2021/12/25 19:07:59;;;;;;;33.80;31.60;;;6.40;99.90;;;;;;5133236;27;20455;-82
2021/12/25 19:10:26;;;;;;;34.07;31.93;;;6.40;99.90;;;;;;5133225;27;20507;-82
2021/12/25 19:12:53;;;;;;;33.70;31.60;;;6.40;99.90;;;;;;5132737;27;20483;-83
2021/12/25 19:15:22;;;;;;;33.67;31.67;;;6.30;99.90;;;;;;5131803;27;20470;-82
2021/12/25 19:17:50;;;;;;;34.80;32.50;;;6.40;99.90;;;;;;5131464;27;20933;-83
2021/12/25 19:20:19;;;;;;;32.73;30.67;;;6.30;99.90;;;;;;5131474;27;20848;-83
2021/12/25 19:22:47;;;;;;;34.20;31.80;;;6.30;99.90;;;;;;5131232;27;20439;-82
2021/12/25 19:25:15;;;;;;;35.30;33.07;;;6.30;99.90;;;;;;5128394;27;20789;-83
2021/12/25 19:27:44;;;;;;;34.40;32.13;;;6.40;99.90;;;;;;5131471;27;20446;-85
2021/12/25 19:30:14;;;;;;;32.97;30.77;;;6.40;99.90;;;;;;5131325;27;20655;-86
2021/12/25 19:32:41;;;;;;;33.90;31.60;;;6.40;99.90;;;;;;5130991;27;20489;-85
2021/12/25 19:35:09;;;;;;;32.87;30.77;;;6.30;99.90;;;;;;5131395;27;20924;-85
2021/12/25 19:37:36;;;;;;;33.20;31.20;;;6.20;99.90;;;;;;5128804;27;20444;-84
2021/12/25 19:40:06;;;;;;;32.33;30.33;;;6.10;99.90;;;;;;5131651;27;20979;-83
2021/12/25 19:42:33;;;;;;;34.33;32.20;;;6.10;99.90;;;;;;5131335;27;20776;-85
2021/12/25 19:44:59;;;;;;;36.67;34.23;;;5.90;99.90;;;;;;5131387;27;20441;-85
2021/12/25 19:47:27;;;;;;;34.00;32.00;;;5.90;99.90;;;;;;5131182;27;20448;-86
2021/12/25 19:49:57;;;;;;;33.80;31.70;;;5.80;99.90;;;;;;5131097;27;20800;-86
2021/12/25 19:52:23;;;;;;;34.10;31.90;;;5.80;99.90;;;;;;5131233;27;20441;-86
2021/12/25 19:54:50;;;;;;;34.83;32.53;;;5.80;99.90;;;;;;5131051;27;20939;-83
2021/12/25 19:57:18;;;;;;;32.40;30.40;;;5.70;99.90;;;;;;5130863;27;20445;-82
2021/12/25 19:59:46;;;;;;;33.47;31.13;;;5.60;99.90;;;;;;5130478;27;20848;-82
2021/12/25 20:02:14;;;;;;;34.60;32.40;;;5.60;99.90;;;;;;5130458;27;20536;-83
2021/12/25 20:04:41;;;;;;;33.23;31.00;;;5.60;99.90;;;;;;5131381;27;20449;-83
2021/12/25 20:07:08;;;;;;;32.80;30.60;;;5.60;99.90;;;;;;5131573;27;20503;-82
2021/12/25 20:09:36;;;;;;;32.57;30.57;;;5.70;99.90;;;;;;5131758;27;20450;-83
2021/12/25 20:12:02;;;;;;;33.37;31.27;;;5.80;99.90;;;;;;5132172;27;20457;-83
2021/12/25 20:14:31;;;;;;;33.57;31.50;;;5.80;99.90;;;;;;5131795;27;20482;-83
2021/12/25 20:16:57;;;;;;;33.30;31.20;;;5.90;99.90;;;;;;5131944;27;20481;-84
2021/12/25 20:19:24;;;;;;;32.50;30.57;;;5.90;99.90;;;;;;5131965;27;20462;-84
2021/12/25 20:21:51;;;;;;;31.93;29.90;;;5.80;99.90;;;;;;5132055;27;20805;-83
2021/12/25 20:24:18;;;;;;;32.13;30.10;;;5.60;99.90;;;;;;5131898;27;20445;-83
2021/12/25 20:26:45;;;;;;;32.13;30.10;;;5.60;99.90;;;;;;5131703;27;20460;-84
2021/12/25 20:29:11;;;;;;;33.67;31.37;;;5.60;99.90;;;;;;5131993;27;20490;-85